Time;durP1;ratioP1;P1;durP2;ratioP2;P2;SDS_P1;SDS_P2;PMS_P1;PMS_P2;Temp;Humidity;BMP_temperature;BMP_pressure;BME280_temperature;BME280_humidity;BME280_pressure;Samples;Min_cycle;Max_cycle;Signal;HPM_P1;HPM_P2
2022/01/26 00:07:14;;;;;;;;;;;2.80;99.90;;;2.40;100.00;100619.63;5095509;28;20264;-59
2022/01/26 00:09:39;;;;;;;;;;;2.80;99.90;;;2.43;100.00;100610.25;5077635;28;19916;-58
2022/01/26 00:12:05;;;;;;;;;;;2.80;99.90;;;2.00;100.00;100540.63;5094958;28;19923;-58
2022/01/26 00:14:31;;;;;;;;;;;2.80;99.90;;;2.47;100.00;100611.84;5095176;28;20381;-58
2022/01/26 00:17:00;;;;;;;;;;;2.90;99.90;;;2.42;100.00;100613.66;5077561;28;19924;-58
2022/01/26 00:19:32;;;;;;;;;;;2.90;99.70;;;2.37;100.00;100624.81;5095412;28;19916;-58
2022/01/26 00:21:58;;;;;;;;;;;2.90;99.70;;;2.28;100.00;100624.13;5095257;28;19916;-58
2022/01/26 00:29:38;;;;;;;;;;;2.80;99.60;;;2.25;100.00;100626.72;5095010;28;19920;-58
2022/01/26 00:40:37;;;;;;;;;;;2.80;99.80;;;2.26;100.00;100630.94;5094800;28;19969;-59
2022/01/26 00:43:25;;;;;;;;;;;2.70;99.80;;;2.32;100.00;100629.13;5079105;28;19912;-59
2022/01/26 00:45:56;;;;;;;;;;;2.70;99.70;;;2.34;100.00;100628.25;5094518;28;19945;-59
2022/01/26 00:48:21;;;;;;;;;;;2.70;99.80;;;2.30;100.00;100624.09;5095274;28;20299;-58
2022/01/26 00:50:51;;;;;;;;;;;2.70;99.80;;;2.03;100.00;100583.84;5059880;28;19942;-60
2022/01/26 00:53:23;;;;;;;;;;;2.70;99.90;;;2.16;100.00;100603.97;5077253;28;20015;-57
2022/01/26 00:55:49;;;;;;;;;;;2.70;99.90;;;2.22;100.00;100600.47;5061172;28;19917;-58
2022/01/26 00:58:15;;;;;;;;;;;2.70;99.90;;;2.25;100.00;100611.44;5076716;28;19923;-58
2022/01/26 01:00:40;;;;;;;;;;;2.70;99.90;;;2.25;100.00;100608.03;5094829;28;19931;-57
2022/01/26 01:03:06;;;;;;;;;;;2.70;99.90;;;2.22;100.00;100600.47;5059526;28;19923;-57
2022/01/26 01:05:42;;;;;;;;;;;2.70;99.80;;;2.31;100.00;100613.00;5094503;28;20277;-57
2022/01/26 01:08:13;;;;;;;;;;;2.70;99.50;;;2.02;100.00;100559.25;5094428;28;20237;-57
2022/01/26 01:10:40;;;;;;;;;;;2.70;99.40;;;2.21;100.00;100608.97;5077262;28;19920;-57
2022/01/26 01:13:08;;;;;;;;;;;2.70;99.40;;;2.08;100.00;100582.06;5076333;28;19953;-58
2022/01/26 01:15:34;;;;;;;;;;;2.70;99.40;;;2.29;100.00;100614.78;5094417;28;19916;-57
2022/01/26 01:18:16;;;;;;;;;;;2.70;99.40;;;2.25;100.00;100618.22;5094144;28;19939;-58
2022/01/26 01:31:16;;;;;;;;;;;2.60;99.10;;;2.04;100.00;100611.81;5094256;28;20237;-57
2022/01/26 01:33:47;;;;;;;;;;;2.60;99.00;;;2.14;100.00;100617.59;5094501;28;19990;-57
2022/01/26 01:36:13;;;;;;;;;;;2.60;99.00;;;2.20;100.00;100636.16;5075785;28;19916;-57
2022/01/26 01:38:41;;;;;;;;;;;2.60;99.00;;;2.08;100.00;100622.78;5076082;28;19977;-57
2022/01/26 01:41:07;;;;;;;;;;;2.60;99.00;;;1.95;100.00;100600.97;5076167;28;19916;-57
2022/01/26 01:43:33;;;;;;;;;;;2.60;98.90;;;2.13;100.00;100638.84;5076009;28;20326;-57
2022/01/26 01:46:00;;;;;;;;;;;2.60;98.80;;;2.07;100.00;100632.13;5075549;28;19912;-57
2022/01/26 01:48:30;;;;;;;;;;;2.60;98.80;;;1.85;100.00;100590.09;5075990;28;19938;-57
2022/01/26 01:50:58;;;;;;;;;;;2.50;98.70;;;2.06;100.00;100639.81;5093761;28;19928;-58
2022/01/26 01:53:32;;;;;;;;;;;2.60;98.80;;;1.84;100.00;100590.97;5076142;28;19920;-58
2022/01/26 01:55:59;;;;;;;;;;;2.50;98.80;;;2.10;100.00;100627.00;5076270;28;19916;-57
2022/01/26 01:58:25;;;;;;;;;;;2.60;99.00;;;1.90;100.00;100584.06;5059217;28;20348;-57
2022/01/26 02:00:50;;;;;;;;;;;2.60;98.90;;;2.01;100.00;100621.22;5093989;28;19922;-74
2022/01/26 02:03:16;;;;;;;;;;;2.50;98.90;;;2.05;100.00;100628.78;5093512;28;19920;-57
2022/01/26 02:05:42;;;;;;;;;;;2.50;98.80;;;1.73;100.00;100567.44;5093860;28;19916;-57
2022/01/26 02:08:08;;;;;;;;;;;2.50;98.80;;;1.97;100.00;100615.34;5093885;28;19916;-57
2022/01/26 02:10:34;;;;;;;;;;;2.50;98.80;;;1.81;100.00;100616.47;5093527;28;19969;-58
2022/01/26 02:13:03;;;;;;;;;;;2.50;98.80;;;1.95;100.00;100626.41;5093422;28;19970;-58
2022/01/26 02:15:44;;;;;;;;;;;2.50;98.80;;;1.98;100.00;100626.38;5093765;28;19916;-57
2022/01/26 02:18:36;;;;;;;;;;;2.40;98.70;;;2.00;100.00;100622.91;5077865;28;19969;-57
2022/01/26 02:56:07;;;;;;;;;;;2.40;99.60;;;2.08;100.00;100610.91;5092859;28;19923;-58
2022/01/26 02:58:50;;;;;;;;;;;2.50;99.70;;;1.99;100.00;100617.84;5093170;28;19922;-57
2022/01/26 03:06:43;;;;;;;;;;;2.40;99.60;;;1.92;100.00;100615.41;5075223;28;19923;-57
2022/01/26 03:09:13;;;;;;;;;;;2.40;99.60;;;1.55;100.00;100557.56;5096690;28;20014;-57
2022/01/26 03:11:41;;;;;;;;;;;2.40;99.60;;;1.93;100.00;100611.16;5079404;28;19916;-57
2022/01/26 03:14:23;;;;;;;;;;;2.40;99.70;;;1.99;100.00;100607.66;5096471;28;19923;-58
2022/01/26 03:16:55;;;;;;;;;;;2.40;99.70;;;1.79;100.00;100585.97;5096622;28;19923;-57
2022/01/26 03:20:10;;;;;;;;;;;2.40;99.70;;;1.80;100.00;100584.28;5096859;28;20279;-58
2022/01/26 03:30:07;;;;;;;;;;;2.40;99.80;;;1.95;100.00;100606.06;5080106;28;19920;-58
2022/01/26 03:32:53;;;;;;;;;;;2.40;99.90;;;1.83;100.00;100602.00;5096498;28;19916;-57
2022/01/26 03:35:30;;;;;;;;;;;2.40;99.90;;;1.73;100.00;100569.97;5066753;28;19995;-57
2022/01/26 03:37:57;;;;;;;;;;;2.40;99.90;;;1.82;100.00;100585.06;5096314;28;19916;-57
2022/01/26 03:40:31;;;;;;;;;;;2.40;99.90;;;2.07;100.00;100627.03;5096500;28;19916;-57
2022/01/26 03:42:57;;;;;;;;;;;2.50;99.90;;;2.01;100.00;100611.88;5079420;28;19916;-73
2022/01/26 03:45:25;;;;;;;;;;;2.50;99.90;;;2.01;100.00;100608.50;5096254;28;20375;-58
2022/01/26 03:47:51;;;;;;;;;;;2.50;99.90;;;2.07;100.00;100606.66;5096060;28;20031;-58
2022/01/26 03:50:16;;;;;;;;;;;2.50;99.90;;;1.82;100.00;100591.00;5077861;28;20341;-58
2022/01/26 03:52:42;;;;;;;;;;;2.50;99.80;;;1.82;100.00;100588.44;5095937;28;20253;-57
2022/01/26 03:55:08;;;;;;;;;;;2.50;99.80;;;1.94;100.00;100612.84;5077695;28;20254;-58
2022/01/26 03:57:34;;;;;;;;;;;2.50;99.70;;;1.79;100.00;100572.41;5077576;28;20356;-57
2022/01/26 04:00:00;;;;;;;;;;;2.50;99.80;;;2.06;100.00;100617.72;5060524;28;19920;-58
2022/01/26 04:02:25;;;;;;;;;;;2.50;99.80;;;2.04;100.00;100623.72;5095845;28;19968;-58
2022/01/26 04:04:57;;;;;;;;;;;2.50;99.80;;;2.08;100.00;100620.22;5095499;28;19920;-57
2022/01/26 04:07:23;;;;;;;;;;;2.50;99.90;;;1.83;100.00;100571.47;5077394;28;19916;-58
2022/01/26 04:09:49;;;;;;;;;;;2.50;99.90;;;2.15;100.00;100619.25;5060901;28;19922;-57
2022/01/26 04:12:14;;;;;;;;;;;2.60;99.90;;;2.14;100.00;100623.50;5095343;28;19923;-58
2022/01/26 04:14:43;;;;;;;;;;;2.60;99.90;;;2.04;100.00;100618.63;5095697;28;19924;-58
2022/01/26 04:17:09;;;;;;;;;;;2.60;99.90;;;1.91;100.00;100595.91;5095008;28;19916;-58
2022/01/26 04:19:38;;;;;;;;;;;2.60;99.90;;;2.02;100.00;100600.00;5077115;28;19923;-57
2022/01/26 04:22:14;;;;;;;;;;;2.50;99.80;;;2.08;100.00;100595.63;5077044;28;19916;-58
2022/01/26 04:24:46;;;;;;;;;;;2.50;99.90;;;2.04;100.00;100601.66;5078875;28;19928;-57
2022/01/26 04:29:37;;;;;;;;;;;2.50;99.90;;;1.82;100.00;100559.63;5076904;28;19966;-57
2022/01/26 04:32:04;;;;;;;;;;;2.60;99.90;;;2.07;100.00;100604.13;5095082;28;19917;-58
2022/01/26 04:34:32;;;;;;;;;;;2.60;99.70;;;2.05;100.00;100599.94;5077075;28;19923;-57
2022/01/26 04:39:35;;;;;;;;;;;2.60;99.30;;;1.91;100.00;100590.81;5077533;28;19916;-57
2022/01/26 04:42:06;;;;;;;;;;;2.50;99.20;;;1.88;100.00;100583.28;5094822;28;19920;-71
2022/01/26 04:44:39;;;;;;;;;;;2.40;99.30;;;1.85;100.00;100585.84;5095046;28;19923;-57
2022/01/26 04:47:05;;;;;;;;;;;2.40;99.50;;;1.62;100.00;100557.44;5095158;28;19923;-57
2022/01/26 04:49:32;;;;;;;;;;;2.40;99.70;;;1.88;100.00;100579.88;5094585;28;19916;-57
2022/01/26 04:51:57;;;;;;;;;;;2.40;99.80;;;1.56;100.00;100533.81;5094768;28;19916;-57
2022/01/26 04:54:23;;;;;;;;;;;2.40;99.90;;;1.35;100.00;100494.31;5094538;28;20383;-58
2022/01/26 04:56:49;;;;;;;;;;;2.40;99.90;;;1.91;100.00;100593.38;5076817;28;19917;-57
2022/01/26 04:59:15;;;;;;;;;;;2.40;99.90;;;1.89;100.00;100579.84;5094314;28;19916;-58
2022/01/26 05:01:40;;;;;;;;;;;2.40;99.90;;;1.95;100.00;100594.19;5094590;28;19927;-57
2022/01/26 05:04:06;;;;;;;;;;;2.40;99.90;;;1.96;100.00;100597.56;5094349;28;19912;-57
2022/01/26 05:06:32;;;;;;;;;;;2.40;99.90;;;1.97;100.00;100602.63;5076504;28;20356;-58
2022/01/26 05:08:58;;;;;;;;;;;2.40;99.90;;;1.95;100.00;100600.97;5094318;28;19916;-57
2022/01/26 05:11:33;;;;;;;;;;;2.40;99.90;;;1.98;100.00;100606.00;5094265;28;19916;-58
2022/01/26 05:13:59;;;;;;;;;;;2.40;99.90;;;1.89;100.00;100602.72;5076296;28;19916;-57
2022/01/26 05:16:25;;;;;;;;;;;2.40;99.90;;;1.83;100.00;100605.38;5059652;28;19965;-57
2022/01/26 05:18:52;;;;;;;;;;;2.40;99.90;;;1.51;100.00;100574.56;5059542;28;19966;-57
2022/01/26 05:21:18;;;;;;;;;;;2.30;99.90;;;1.46;100.00;100594.16;5093969;28;20410;-58
2022/01/26 05:23:44;;;;;;;;;;;2.20;99.90;;;1.58;100.00;100582.94;5094306;28;19916;-57
2022/01/26 05:26:09;;;;;;;;;;;2.10;99.90;;;1.70;100.00;100573.41;5094371;28;19916;-57
2022/01/26 05:28:35;;;;;;;;;;;2.20;99.90;;;1.86;100.00;100590.09;5075755;28;19969;-58
2022/01/26 05:31:01;;;;;;;;;;;2.20;99.90;;;1.73;100.00;100578.41;5093390;28;19932;-57
2022/01/26 05:33:26;;;;;;;;;;;2.30;99.90;;;1.79;100.00;100585.13;5093538;28;19916;-58
2022/01/26 05:35:52;;;;;;;;;;;2.30;99.90;;;1.76;100.00;100586.00;5076067;28;19946;-57
2022/01/26 05:38:18;;;;;;;;;;;2.30;99.90;;;1.94;100.00;100586.56;5093841;28;20318;-58
2022/01/26 05:40:43;;;;;;;;;;;2.30;99.90;;;2.05;100.00;100584.66;5094067;28;20371;-57
2022/01/26 05:43:09;;;;;;;;;;;2.40;99.90;;;1.99;100.00;100575.41;5093720;28;19916;-58
2022/01/26 05:45:37;;;;;;;;;;;2.40;99.90;;;2.02;100.00;100592.34;5093884;28;19917;-57
2022/01/26 05:48:08;;;;;;;;;;;2.40;99.90;;;2.10;100.00;100603.22;5059853;28;20424;-57
2022/01/26 05:50:34;;;;;;;;;;;2.50;99.90;;;2.11;100.00;100598.13;5093887;28;20361;-57
2022/01/26 05:53:00;;;;;;;;;;;2.50;99.90;;;2.01;100.00;100585.59;5093820;28;19912;-57
2022/01/26 05:55:26;;;;;;;;;;;2.50;99.90;;;2.12;100.00;100598.97;5075633;28;20483;-58
2022/01/26 05:57:52;;;;;;;;;;;2.50;99.90;;;2.09;100.00;100588.81;5093710;28;19928;-57
2022/01/26 06:00:18;;;;;;;;;;;2.50;99.90;;;2.10;100.00;100591.34;5075200;28;20379;-58
2022/01/26 06:02:44;;;;;;;;;;;2.50;99.90;;;2.14;100.00;100579.41;5075709;28;19922;-58
2022/01/26 06:05:10;;;;;;;;;;;2.50;99.90;;;2.13;100.00;100595.56;5093570;28;20365;-58
2022/01/26 06:07:36;;;;;;;;;;;2.60;99.90;;;2.09;100.00;100583.72;5075586;28;19931;-58
2022/01/26 06:10:02;;;;;;;;;;;2.60;99.90;;;2.15;100.00;100578.53;5093513;28;20441;-58
2022/01/26 06:12:29;;;;;;;;;;;2.60;99.90;;;2.13;100.00;100578.56;5093589;28;20372;-58
2022/01/26 06:14:55;;;;;;;;;;;2.50;99.90;;;1.97;100.00;100576.34;5093748;28;20376;-58
2022/01/26 06:17:21;;;;;;;;;;;2.60;99.90;;;2.06;100.00;100578.72;5093351;28;19955;-58
2022/01/26 06:19:47;;;;;;;;;;;2.50;99.90;;;2.11;100.00;100577.75;5075399;28;19922;-58
2022/01/26 06:22:12;;;;;;;;;;;2.60;99.90;;;2.17;100.00;100581.88;5075443;28;19922;-58
2022/01/26 06:24:38;;;;;;;;;;;2.60;99.90;;;2.12;100.00;100584.53;5093363;28;19916;-58
2022/01/26 06:27:04;;;;;;;;;;;2.60;99.90;;;2.11;100.00;100576.91;5093533;28;19924;-58
2022/01/26 06:29:31;;;;;;;;;;;2.60;99.90;;;2.08;100.00;100574.41;5092843;28;20438;-58
2022/01/26 06:31:57;;;;;;;;;;;2.60;99.90;;;2.15;100.00;100581.06;5075628;28;19916;-58
2022/01/26 06:34:22;;;;;;;;;;;2.60;99.90;;;2.07;100.00;100582.91;5093143;28;19912;-58
2022/01/26 06:36:48;;;;;;;;;;;2.60;99.90;;;2.01;100.00;100562.69;5075539;28;20376;-58
2022/01/26 06:39:14;;;;;;;;;;;2.50;99.90;;;2.08;100.00;100561.69;5075212;28;19923;-58
2022/01/26 06:41:47;;;;;;;;;;;2.60;99.90;;;1.98;100.00;100565.28;5077092;28;20303;-58
2022/01/26 06:44:26;;;;;;;;;;;2.60;99.90;;;1.96;100.00;100567.88;5097138;28;20049;-58
2022/01/26 06:47:17;;;;;;;;;;;2.50;99.80;;;2.02;100.00;100572.84;5097160;28;19966;-58
2022/01/26 06:49:42;;;;;;;;;;;2.50;99.70;;;1.95;100.00;100585.69;5079296;28;20253;-58
2022/01/26 06:52:08;;;;;;;;;;;2.50;99.70;;;2.06;100.00;100581.25;5096953;28;19962;-75
2022/01/26 06:54:34;;;;;;;;;;;2.50;99.60;;;1.52;100.00;100503.34;5097117;28;19916;-58
2022/01/26 06:56:59;;;;;;;;;;;2.50;99.60;;;2.13;100.00;100598.09;5097147;28;19916;-58
2022/01/26 06:59:25;;;;;;;;;;;2.60;99.50;;;2.12;100.00;100588.78;5096915;28;20249;-58
2022/01/26 07:01:51;;;;;;;;;;;2.60;99.40;;;1.98;100.00;100598.38;5078717;28;19920;-58
2022/01/26 07:04:17;;;;;;;;;;;2.50;99.30;;;1.97;100.00;100605.16;5096795;28;20422;-58
2022/01/26 07:06:42;;;;;;;;;;;2.50;99.20;;;1.93;100.00;100606.09;5096573;28;19916;-58
2022/01/26 07:09:08;;;;;;;;;;;2.50;99.10;;;2.02;100.00;100605.91;5096803;28;20410;-58
2022/01/26 07:11:34;;;;;;;;;;;2.50;99.10;;;1.72;100.00;100561.50;5096870;28;19923;-58
2022/01/26 07:14:01;;;;;;;;;;;2.50;99.20;;;1.81;100.00;100563.06;5096452;28;19916;-58
2022/01/26 07:22:12;;;;;;;;;;;2.50;99.40;;;2.02;100.00;100594.91;5014061;28;20024;-58
2022/01/26 07:24:38;;;;;;;;;;;2.50;99.40;;;2.07;100.00;100605.81;5079035;28;20023;-58
2022/01/26 07:27:04;;;;;;;;;;;2.60;99.50;;;2.08;100.00;100623.63;5078272;28;20025;-58
2022/01/26 07:29:31;;;;;;;;;;;2.60;99.50;;;2.12;100.00;100624.41;5095924;28;20321;-58
2022/01/26 07:31:58;;;;;;;;;;;2.60;99.50;;;2.10;100.00;100626.16;5062245;28;20007;-58
2022/01/26 07:34:24;;;;;;;;;;;2.60;99.60;;;2.04;100.00;100628.81;5096043;28;20245;-58
2022/01/26 07:36:52;;;;;;;;;;;2.60;99.50;;;2.02;100.00;100626.28;5096363;28;20392;-58
2022/01/26 07:39:29;;;;;;;;;;;2.60;99.40;;;1.81;100.00;100632.56;5095625;28;20277;-58
2022/01/26 07:41:55;;;;;;;;;;;2.50;99.10;;;1.96;100.00;100631.50;5080026;28;19973;-58
2022/01/26 07:44:21;;;;;;;;;;;2.50;99.00;;;1.83;100.00;100602.00;5095836;28;19916;-58
2022/01/26 07:46:47;;;;;;;;;;;2.50;99.00;;;2.06;100.00;100632.16;5095961;28;19969;-58
2022/01/26 07:49:12;;;;;;;;;;;2.50;99.00;;;1.90;100.00;100632.41;5095905;28;19918;-60
2022/01/26 07:51:38;;;;;;;;;;;2.50;98.90;;;2.00;100.00;100644.97;5095872;28;19916;-57
2022/01/26 07:54:04;;;;;;;;;;;2.50;98.80;;;1.97;100.00;100634.88;5094814;28;19917;-57
2022/01/26 07:56:30;;;;;;;;;;;2.50;98.90;;;2.02;100.00;100643.25;5077667;28;20310;-62
2022/01/26 07:58:57;;;;;;;;;;;2.50;98.90;;;2.04;100.00;100651.72;5095786;28;19920;-63
2022/01/26 08:01:23;;;;;;;;;;;2.50;98.90;;;2.05;100.00;100651.69;5077728;28;19923;-63
2022/01/26 08:03:49;;;;;;;;;;;2.60;99.00;;;2.01;100.00;100661.94;5095398;28;19924;-63
2022/01/26 08:06:17;;;;;;;;;;;2.50;98.80;;;1.72;100.00;100609.84;5095238;28;19959;-63
2022/01/26 08:08:43;;;;;;;;;;;2.50;98.70;;;1.91;100.00;100630.72;5095385;28;19982;-66
2022/01/26 08:11:09;;;;;;;;;;;2.50;98.50;;;1.99;100.00;100644.13;5077399;28;19916;-65
2022/01/26 08:13:35;;;;;;;;;;;2.50;98.50;;;2.04;100.00;100641.53;5077252;28;19917;-66
2022/01/26 08:16:01;;;;;;;;;;;2.60;98.50;;;2.12;100.00;100660.91;5095550;28;19920;-66
2022/01/26 08:18:27;;;;;;;;;;;2.60;98.40;;;2.09;100.00;100660.09;5060385;28;19915;-65
2022/01/26 08:20:53;;;;;;;;;;;2.50;98.40;;;1.80;100.00;100627.53;5095348;28;19923;-66
2022/01/26 08:23:20;;;;;;;;;;;2.60;98.50;;;1.86;100.00;100623.16;5095205;28;19912;-65
2022/01/26 08:25:47;;;;;;;;;;;2.60;98.40;;;2.04;100.00;100656.81;5095349;28;19912;-65
2022/01/26 08:28:20;;;;;;;;;;;2.60;98.50;;;1.99;100.00;100669.59;5077180;28;19912;-65
2022/01/26 08:30:46;;;;;;;;;;;2.60;98.50;;;1.60;100.00;100629.53;5094993;28;20396;-65
2022/01/26 08:33:12;;;;;;;;;;;2.60;98.60;;;2.02;100.00;100677.19;5095087;28;19916;-65
2022/01/26 08:35:38;;;;;;;;;;;2.60;98.60;;;2.04;100.00;100672.06;5094645;28;19916;-65
2022/01/26 08:38:03;;;;;;;;;;;2.60;98.70;;;2.05;100.00;100648.31;5076912;28;19916;-66
2022/01/26 08:40:30;;;;;;;;;;;2.60;98.80;;;2.11;100.00;100668.56;5076773;28;20399;-66
2022/01/26 08:42:56;;;;;;;;;;;2.70;98.90;;;2.26;100.00;100681.00;5095022;28;19916;-65
2022/01/26 08:45:22;;;;;;;;;;;2.70;98.80;;;2.19;100.00;100682.84;5086477;28;19927;-65
2022/01/26 08:47:49;;;;;;;;;;;2.70;98.70;;;2.05;100.00;100646.59;5075081;28;20262;-64
2022/01/26 08:50:15;;;;;;;;;;;2.70;98.80;;;1.92;100.00;100628.13;5075317;28;19916;-66
2022/01/26 08:52:41;;;;;;;;;;;2.60;98.70;;;2.19;100.00;100674.34;5074578;28;19923;-65
2022/01/26 08:55:07;;;;;;;;;;;2.70;98.80;;;2.12;100.00;100676.19;5074826;28;19916;-64
2022/01/26 08:57:33;;;;;;;;;;;2.70;98.80;;;2.18;100.00;100682.84;5074135;28;19919;-65
2022/01/26 08:59:59;;;;;;;;;;;2.70;99.10;;;2.24;100.00;100687.84;5074598;28;19920;-63
2022/01/26 09:02:25;;;;;;;;;;;2.70;98.70;;;2.23;100.00;100678.50;5074170;28;19916;-65
2022/01/26 09:04:51;;;;;;;;;;;2.70;98.60;;;2.05;100.00;100638.97;5040135;28;20071;-64
2022/01/26 09:07:19;;;;;;;;;;;2.80;98.60;;;2.25;100.00;100698.00;5074110;28;19943;-66
2022/01/26 09:09:46;;;;;;;;;;;2.80;98.40;;;2.17;100.00;100688.81;5056751;28;19917;-63
2022/01/26 09:12:14;;;;;;;;;;;2.80;98.00;;;2.05;100.00;100689.03;5074004;28;20062;-66
2022/01/26 09:14:41;;;;;;;;;;;2.70;97.90;;;2.03;100.00;100699.22;5056166;28;19912;-65
2022/01/26 09:17:08;;;;;;;;;;;2.70;98.00;;;1.66;100.00;100687.94;5023340;28;20356;-64
2022/01/26 09:19:34;;;;;;;;;;;2.70;98.00;;;2.00;100.00;100688.25;5073734;28;19913;-64
2022/01/26 09:22:05;;;;;;;;;;;2.60;97.90;;;1.81;100.00;100629.19;5056167;28;19960;-65
2022/01/26 09:24:31;;;;;;;;;;;2.70;98.10;;;2.19;100.00;100692.19;5074164;28;19956;-64
2022/01/26 09:26:57;;;;;;;;;;;2.60;98.20;;;2.21;100.00;100690.44;5056005;28;20405;-65
2022/01/26 09:29:23;;;;;;;;;;;2.70;98.40;;;2.22;100.00;100689.59;5039004;28;19920;-65
2022/01/26 09:31:50;;;;;;;;;;;2.70;98.40;;;2.19;100.00;100674.34;5074141;28;19913;-65
2022/01/26 09:34:19;;;;;;;;;;;2.70;98.50;;;2.31;100.00;100669.03;5055488;28;20225;-64
2022/01/26 09:36:45;;;;;;;;;;;2.80;98.50;;;2.25;100.00;100656.41;5074188;28;19924;-64
2022/01/26 09:39:12;;;;;;;;;;;2.80;98.40;;;2.22;100.00;100626.75;5073792;28;19956;-65
2022/01/26 09:41:38;;;;;;;;;;;2.80;98.40;;;2.39;100.00;100661.28;5055661;28;20273;-64
2022/01/26 09:44:05;;;;;;;;;;;2.80;98.50;;;2.20;100.00;100650.56;5055511;28;19916;-63
2022/01/26 09:46:30;;;;;;;;;;;2.80;98.30;;;2.15;100.00;100648.09;5073847;28;19917;-64
2022/01/26 09:48:57;;;;;;;;;;;2.80;98.50;;;2.35;100.00;100668.13;5074107;28;20376;-64
2022/01/26 09:51:22;;;;;;;;;;;2.80;98.40;;;2.44;100.00;100665.41;5039173;28;19917;-66
2022/01/26 09:54:04;;;;;;;;;;;2.80;98.50;;;2.40;100.00;100668.03;5073794;28;19917;-64
2022/01/26 09:56:30;;;;;;;;;;;2.90;98.50;;;2.39;100.00;100651.09;5055602;28;19912;-65
2022/01/26 09:58:56;;;;;;;;;;;2.90;98.40;;;2.46;100.00;100635.66;5055665;28;20327;-66
2022/01/26 10:01:22;;;;;;;;;;;2.90;98.40;;;2.37;100.00;100617.16;5055489;28;19920;-64
2022/01/26 10:03:50;;;;;;;;;;;2.90;98.30;;;2.17;100.00;100567.44;5055448;28;19965;-65
2022/01/26 10:06:25;;;;;;;;;;;2.90;98.20;;;2.48;100.00;100627.97;5073695;28;20362;-66
2022/01/26 10:09:01;;;;;;;;;;;2.90;98.20;;;2.27;100.00;100635.16;5039959;28;20028;-63
2022/01/26 10:19:58;;;;;;;;;;;2.90;98.00;;;2.30;100.00;100654.66;5046642;28;19952;-65
2022/01/26 10:22:32;;;;;;;;;;;2.90;98.20;;;2.32;100.00;100641.84;5077018;28;20003;-64
2022/01/26 10:25:17;;;;;;;;;;;2.90;98.10;;;2.44;100.00;100642.50;5077285;28;19916;-65
2022/01/26 10:27:45;;;;;;;;;;;2.90;98.00;;;2.13;100.00;100581.13;5059195;28;19946;-63
2022/01/26 10:30:12;;;;;;;;;;;3.00;97.60;;;2.44;100.00;100634.84;5076651;28;19921;-64
2022/01/26 10:32:39;;;;;;;;;;;3.00;97.30;;;2.12;100.00;100611.69;5076939;28;19916;-64
2022/01/26 10:35:06;;;;;;;;;;;2.90;97.10;;;2.41;100.00;100657.81;5042505;28;19916;-64
2022/01/26 10:37:32;;;;;;;;;;;3.00;97.20;;;2.45;100.00;100664.53;5076858;28;19920;-64
2022/01/26 10:40:14;;;;;;;;;;;3.00;97.10;;;2.49;100.00;100676.34;5059122;28;20262;-65
2022/01/26 10:42:41;;;;;;;;;;;3.00;97.10;;;2.21;100.00;100663.28;5076904;28;19916;-66
2022/01/26 10:45:16;;;;;;;;;;;3.00;97.00;;;2.00;100.00;100639.88;5059093;28;19995;-66
2022/01/26 10:47:46;;;;;;;;;;;2.90;96.60;;;2.42;100.00;100679.03;5076804;28;19924;-65
2022/01/26 10:53:09;;;;;;;;;;;2.90;96.60;;;2.23;100.00;100698.88;5060856;28;19916;-65
2022/01/26 10:55:36;;;;;;;;;;;2.90;96.50;;;2.27;100.00;100701.38;5076475;28;19923;-65
2022/01/26 10:58:02;;;;;;;;;;;2.80;96.40;;;2.10;100.00;100705.06;5076755;28;20022;-65
2022/01/26 11:00:33;;;;;;;;;;;2.80;96.30;;;2.09;100.00;100704.22;5076686;28;19916;-65
2022/01/26 11:02:59;;;;;;;;;;;2.80;96.30;;;1.83;100.00;100648.66;5042872;28;19916;-68
2022/01/26 11:05:25;;;;;;;;;;;2.70;96.30;;;1.85;100.00;100702.91;5058357;28;19938;-66
2022/01/26 11:07:50;;;;;;;;;;;2.70;96.30;;;1.97;100.00;100668.81;5076704;28;19916;-64
2022/01/26 11:10:16;;;;;;;;;;;2.70;96.40;;;2.19;100.00;100708.28;5058574;28;20258;-66
2022/01/26 11:12:42;;;;;;;;;;;2.70;96.60;;;2.02;100.00;100666.16;5058316;28;19925;-63
2022/01/26 11:15:14;;;;;;;;;;;2.70;96.70;;;2.25;100.00;100676.78;5058474;28;19962;-64
2022/01/26 11:17:43;;;;;;;;;;;2.80;96.70;;;2.37;100.00;100651.13;5025354;28;19918;-65
2022/01/26 11:20:20;;;;;;;;;;;2.80;96.60;;;2.45;100.00;100679.84;5076378;28;19916;-64
2022/01/26 11:22:54;;;;;;;;;;;2.80;96.40;;;2.06;100.00;100683.09;5058402;28;19916;-65
2022/01/26 11:25:20;;;;;;;;;;;2.80;96.40;;;2.22;100.00;100681.97;5076007;28;20281;-65
2022/01/26 11:27:47;;;;;;;;;;;2.80;96.40;;;2.16;100.00;100670.16;5057000;28;19918;-64
2022/01/26 11:30:15;;;;;;;;;;;2.70;96.40;;;2.18;100.00;100677.75;5058173;28;19921;-66
2022/01/26 11:32:49;;;;;;;;;;;2.70;96.50;;;2.16;100.00;100667.59;5058094;28;19955;-65
2022/01/26 11:35:15;;;;;;;;;;;2.70;96.60;;;2.21;100.00;100670.94;5058647;28;19923;-65
2022/01/26 11:37:46;;;;;;;;;;;2.70;96.70;;;2.25;100.00;100682.72;5041323;28;20269;-65
2022/01/26 11:45:37;;;;;;;;;;;2.80;96.70;;;1.93;100.00;100608.63;5075697;28;19917;-64
2022/01/26 11:48:10;;;;;;;;;;;2.80;96.70;;;2.26;100.00;100666.59;5041435;28;20354;-66
2022/01/26 11:50:37;;;;;;;;;;;2.80;96.70;;;2.33;100.00;100651.19;5075624;28;19919;-65
2022/01/26 11:53:16;;;;;;;;;;;2.90;96.80;;;2.36;100.00;100668.97;5058033;28;20019;-64
2022/01/26 11:55:51;;;;;;;;;;;2.90;96.80;;;2.43;100.00;100660.34;5075581;28;19923;-65
2022/01/26 11:58:20;;;;;;;;;;;2.90;96.40;;;2.27;100.00;100675.91;5075814;28;19916;-64
2022/01/26 12:03:43;;;;;;;;;;;2.90;96.60;;;2.20;100.00;100627.66;5075303;28;20353;-65
2022/01/26 12:06:17;;;;;;;;;;;2.90;96.80;;;2.41;100.00;100646.78;5075626;28;19923;-64
2022/01/26 12:08:43;;;;;;;;;;;2.90;96.90;;;2.33;100.00;100649.47;5075180;28;19917;-65
2022/01/26 12:11:14;;;;;;;;;;;2.90;97.00;;;2.06;100.00;100624.53;5075303;28;20014;-65
2022/01/26 12:13:41;;;;;;;;;;;2.90;97.00;;;2.42;100.00;100662.03;5057483;28;20006;-65
2022/01/26 12:16:19;;;;;;;;;;;2.90;97.00;;;2.09;100.00;100616.81;5057636;28;19912;-65
2022/01/26 12:18:52;;;;;;;;;;;2.90;97.00;;;2.21;100.00;100657.34;5074829;28;19966;-65
2022/01/26 12:35:44;;;;;;;;;;;2.90;97.80;;;2.01;100.00;100595.75;5074428;28;19920;-63
2022/01/26 12:43:48;;;;;;;;;;;2.80;97.80;;;1.86;100.00;100591.78;5074854;28;19919;-64
2022/01/26 12:46:19;;;;;;;;;;;2.80;97.70;;;1.77;100.00;100608.03;5057005;28;20317;-63
2022/01/26 12:48:59;;;;;;;;;;;2.80;97.50;;;2.10;100.00;100661.78;5040095;28;20265;-64
2022/01/26 12:51:26;;;;;;;;;;;2.80;97.50;;;2.23;100.00;100664.06;5058035;28;19912;-65
2022/01/26 12:54:02;;;;;;;;;;;2.70;97.50;;;2.23;100.00;100658.97;5074126;28;19916;-65
2022/01/26 12:56:32;;;;;;;;;;;2.70;97.40;;;2.16;100.00;100654.88;5074235;28;19916;-64
2022/01/26 12:59:06;;;;;;;;;;;2.80;97.40;;;2.18;100.00;100649.75;5056202;28;19923;-65
2022/01/26 13:01:32;;;;;;;;;;;2.70;97.10;;;2.18;100.00;100660.78;5056452;28;20027;-64
2022/01/26 13:03:59;;;;;;;;;;;2.70;97.10;;;2.09;100.00;100635.47;5056475;28;19917;-66
2022/01/26 13:06:27;;;;;;;;;;;2.70;97.00;;;1.99;100.00;100607.66;5074233;28;19919;-66
2022/01/26 13:09:00;;;;;;;;;;;2.80;97.10;;;1.60;100.00;100604.94;5074135;28;19912;-66
2022/01/26 13:11:31;;;;;;;;;;;2.80;97.00;;;2.19;100.00;100661.63;5040276;28;19916;-66
2022/01/26 13:16:41;;;;;;;;;;;2.70;96.60;;;1.98;100.00;100611.09;5073939;28;20353;-67
2022/01/26 13:27:22;;;;;;;;;;;2.70;97.10;;;2.28;100.00;100674.19;5073995;28;19920;-66
2022/01/26 13:38:30;;;;;;;;;;;2.80;97.30;;;2.11;100.00;100623.56;5055876;28;19922;-65
2022/01/26 13:48:18;;;;;;;;;;;2.80;97.10;;;2.33;100.00;100638.44;5055726;28;20352;-65
2022/01/26 13:53:17;;;;;;;;;;;2.80;97.20;;;1.99;100.00;100605.97;5056324;28;19912;-65
2022/01/26 14:00:55;;;;;;;;;;;2.70;97.20;;;2.02;100.00;100668.72;5073704;28;19928;-64
2022/01/26 14:03:23;;;;;;;;;;;2.60;97.10;;;1.96;100.00;100651.00;5073485;28;20377;-63
2022/01/26 14:05:49;;;;;;;;;;;2.60;97.30;;;2.16;100.00;100674.41;5073383;28;19923;-65